Ship Status Report: callsign AMOUK21

sailwx.info

Track history (hours):
 
Tides and Currents Weather Stations Pressure Air Temp Water Temp Dewpoint Dewpoint Depression Visibility Wind Speed Wind Dir Waves Ship Positions

Callsign AMOUK21 (name unknown)

Last reported at 2016-Apr-30 19:00 UTC. Time now 2016-Apr-30 20:45 UTC.
Position N 56°24' W 005°30'.

Barometer 1019.3 mb
Air temperature 8.0 ° C
Dewpoint 2.1 ° C

Date/timePositionNaut miles runAvg speedWind from/ knotsBaromVisibWave heightAir tempDewpointWater temp
2016-Apr-30 19:00N 56°24' W 005°30'0 0.0 1019.3 8.0 2.1
2016-Apr-30 18:00N 56°24' W 005°30'0 0.0 1019.4 8.8 2.2
2016-Apr-30 17:00N 56°24' W 005°30'0 0.0 1019.2 9.3 3.3
2016-Apr-30 16:00N 56°24' W 005°30'0 0.0 1019.2 7.9 2.8
2016-Apr-30 15:00N 56°24' W 005°30'9 8.9 1018.9 8.6 1.6
2016-Apr-30 14:00N 56°30' W 005°42'1211.6 1018.1 8.1 0.5
2016-Apr-30 13:00N 56°36' W 006°00'1313.2 1017.6 7.7 2.0
2016-Apr-30 12:00N 56°36' W 006°24'1211.6 1017.3 6.7 2.8
2016-Apr-30 11:00N 56°30' W 006°42'0 0.0 1017.0 6.1 2.7
2016-Apr-30 10:00N 56°30' W 006°42'9 8.9 1016.8 6.9 2.3
2016-Apr-30 09:00N 56°36' W 006°30'1313.2 1016.1 6.6 1.9
2016-Apr-30 08:00N 56°36' W 006°06'1514.5 1016.5 4.4 1.5
2016-Apr-30 07:00N 56°30' W 005°42'9 8.9 1016.6 3.8 1.3
2016-Apr-30 06:00N 56°24' W 005°30'0 0.0 1016.6 4.5 2.1
2016-Apr-30 05:00N 56°24' W 005°30'0 0.0 1015.8 4.9 1.2
2016-Apr-30 04:00N 56°24' W 005°30'0 0.0 1015.6 4.4 1.5
2016-Apr-30 03:00N 56°24' W 005°30'0 0.0 1015.3 4.9 1.0
2016-Apr-30 02:00N 56°24' W 005°30'0 0.0 1015.2 5.6 2.4
2016-Apr-30 01:00N 56°24' W 005°30'0 0.0 1014.9 5.8 2.5
2016-Apr-30 00:00N 56°24' W 005°30'0 0.0 1014.6 5.8 2.1
2016-Apr-29 23:00N 56°24' W 005°30'0 0.0 1014.2 5.9 2.5
2016-Apr-29 22:00N 56°24' W 005°30'0 0.0 1014.0 6.2 2.5
2016-Apr-29 21:00N 56°24' W 005°30'18 9.0 1013.6 6.6 2.9
2016-Apr-29 19:00N 56°12' W 005°54'1211.7 1011.5 7.4 1.7
2016-Apr-29 18:00N 56°06' W 006°12'1211.7 1012.6 7.1 1.3
2016-Apr-29 17:00N 56°12' W 005°54'1615.6 1011.5 7.8 1.8
2016-Apr-29 16:00N 56°24' W 005°36'3 1.7 1010.0 7.9 1.0
2016-Apr-29 14:00N 56°24' W 005°30'3 3.3 1010.0 8.6-0.2
2016-Apr-29 13:00N 56°24' W 005°36'1211.6 1009.3 7.2 0.3
2016-Apr-29 12:00N 56°30' W 005°54'1211.6 1009.5 6.5-0.7
2016-Apr-29 11:00N 56°36' W 006°12'10 9.9 1008.6 6.2 1.5
2016-Apr-29 10:00N 56°36' W 006°30'1211.6 1009.1 5.4 0.6
2016-Apr-29 09:00N 56°30' W 006°48'1211.6 1008.5 6.2 1.2
2016-Apr-29 08:00N 56°36' W 006°30'1716.5 1008.0 6.6 0.2
2016-Apr-29 07:00N 56°36' W 006°00'1514.5 1006.9 4.9-0.2
2016-Apr-29 06:00N 56°30' W 005°36'7 6.9 1005.5 4.7-1.0
2016-Apr-29 05:00N 56°24' W 005°30'0 0.0 1005.4 3.6-0.2
2016-Apr-29 04:00N 56°24' W 005°30'0 0.0 1004.9 3.2-0.4
2016-Apr-29 03:00N 56°24' W 005°30'0 0.0 1004.6 3.3 0.2
2016-Apr-29 02:00N 56°24' W 005°30'0 0.0 1004.4 2.5 0.2
2016-Apr-29 01:00N 56°24' W 005°30'0 0.0 1004.0 3.1 0.6
2016-Apr-29 00:00N 56°24' W 005°30'0 0.0 1003.8 3.0 0.2
2016-Apr-28 23:00N 56°24' W 005°30'0 0.0 1003.6 2.4 0.4
2016-Apr-28 22:00N 56°24' W 005°30'0 0.0 1003.3 2.3 1.2
2016-Apr-28 21:00N 56°24' W 005°30'3 3.3 1003.1 3.3 1.6
2016-Apr-28 20:00N 56°24' W 005°36'1615.6 1002.8 3.9 1.2
2016-Apr-28 19:00N 56°12' W 005°54'1211.7 1002.1 2.3 0.9
2016-Apr-28 18:00N 56°06' W 006°12'1211.7 1003.0 4.6 0.4
2016-Apr-28 17:00N 56°12' W 005°54'1615.6 1002.2 3.8 1.1
2016-Apr-28 16:00N 56°24' W 005°36'0 0.0 1001.7 2.3 0.6
2016-Apr-28 14:00N 56°24' W 005°36'3712.3 1001.0 4.4 1.1
2016-Apr-28 11:00N 56°30' W 006°42'0 0.0 1003.1 2.2 1.2
2016-Apr-28 10:00N 56°30' W 006°42'9 8.9 1003.2 2.1 1.7
2016-Apr-28 09:00N 56°36' W 006°30'1414.5 1005.0 0.4-0.3
2016-Apr-28 08:00N 56°42' W 006°06'1817.8 1005.5 1.1-0.2
2016-Apr-28 07:00N 56°30' W 005°42'9 8.9 1006.4 2.6 0.2
2016-Apr-28 06:00N 56°24' W 005°30'0 0.0 1007.2 2.5-0.1
2016-Apr-28 05:00N 56°24' W 005°30'0 0.0 1008.1 2.4 0.2
2016-Apr-28 04:00N 56°24' W 005°30'0 0.0 1009.2 2.3-0.5
2016-Apr-28 03:00N 56°24' W 005°30'0 0.0 1010.0 2.6-0.6
2016-Apr-28 02:00N 56°24' W 005°30'0 0.0 1010.7 3.8 0.6
2016-Apr-27 23:00N 56°24' W 005°30'0 0.0 1012.0 4.3-0.2
2016-Apr-27 22:00N 56°24' W 005°30'0 0.0 1012.3 4.4-0.5
2016-Apr-27 21:00N 56°24' W 005°30'9 8.9 1012.6 5.1 0.4
2016-Apr-27 20:00N 56°30' W 005°42'1211.6 1012.6 4.3-0.1
2016-Apr-27 19:00N 56°36' W 006°00'1716.5 1013.1 5.0-0.4
2016-Apr-27 18:00N 56°36' W 006°30'9 8.9 1013.1 4.8-0.2
2016-Apr-27 17:00N 56°30' W 006°42'0 0.0 1013.2 4.9 0.5
2016-Apr-27 16:00N 56°30' W 006°42'1615.6 1014.5 5.8 1.0
2016-Apr-27 15:00N 56°42' W 007°00'1817.8 1015.0 3.9 0.5
2016-Apr-27 14:00N 56°54' W 007°24'0 0.0 1015.5 5.3-1.7
2016-Apr-27 13:00N 56°54' W 007°24'1211.5 1014.9 5.3-1.2
2016-Apr-27 12:00N 56°48' W 007°06'1817.8 1015.0 4.7-1.3
2016-Apr-27 11:00N 56°36' W 006°42'7 6.9 1014.9 4.2-0.9
2016-Apr-27 10:00N 56°30' W 006°48'1211.6 1014.8 4.8-2.7
2016-Apr-27 09:00N 56°36' W 006°30'1414.5 1015.1 4.2-1.2
2016-Apr-27 08:00N 56°42' W 006°06'1817.8 1015.1 3.3-0.9
2016-Apr-27 07:00N 56°30' W 005°42'9 8.9 1014.7 3.2-1.2
2016-Apr-27 06:00N 56°24' W 005°30'0 0.0 1014.7 1.1-2.0
2016-Apr-27 05:00N 56°24' W 005°30'0 0.0 1014.9 -3.0
2016-Apr-27 04:00N 56°24' W 005°30'0 0.0 1015.2 0.6-1.9
2016-Apr-27 03:00N 56°24' W 005°30'0 0.0 1015.3 0.8-2.7
2016-Apr-27 02:00N 56°24' W 005°30'0 0.0 1015.5 1.2-2.6
2016-Apr-27 01:00N 56°24' W 005°30'0 0.0 1015.5 2.1-2.4
2016-Apr-27 00:00N 56°24' W 005°30'0 0.0 1015.7 2.8-1.6
2016-Apr-26 23:00N 56°24' W 005°30'0 0.0 1015.7 4.1-1.2
2016-Apr-26 22:00N 56°24' W 005°30'7 6.9 1015.6 4.3-0.9
2016-Apr-26 21:00N 56°30' W 005°36'1514.5 1015.9 5.4-0.8
2016-Apr-26 20:00N 56°36' W 006°00'2713.6 1016.0 5.8-0.5
2016-Apr-26 18:00N 56°30' W 006°48'9 8.9 1016.4 6.0 0.5
2016-Apr-26 17:00N 56°36' W 006°36'10 9.9 1016.2 7.2 1.2
2016-Apr-26 16:00N 56°36' W 006°18'1514.5 1015.7 7.5 0.4
2016-Apr-26 15:00N 56°30' W 005°54'1514.6 1014.2 6.7-0.5
2016-Apr-26 14:00N 56°24' W 005°30'0 0.0 1013.3 7.8-2.4
2016-Apr-26 13:00N 56°24' W 005°30'7 6.9 1013.0 7.2-0.7
2016-Apr-26 12:00N 56°30' W 005°36'3 3.3 1013.1 6.7 0.9
2016-Apr-26 11:00N 56°30' W 005°30'0 0.0 1013.2 6.4 0.7
2016-Apr-26 10:00N 56°30' W 005°30'6 6.0 1013.0 5.5 0.2
2016-Apr-26 09:00N 56°24' W 005°30'0 0.0 1013.5 5.1-0.3
2016-Apr-26 08:00N 56°24' W 005°30'0 0.0 1013.3 5.2 1.1
2016-Apr-26 07:00N 56°24' W 005°30'0 0.0 1013.3 4.8 1.1
2016-Apr-26 06:00N 56°24' W 005°30'0 0.0 1013.0 4.0 1.2
2016-Apr-26 05:00N 56°24' W 005°30'0 0.0 1012.7 3.8 0.7
2016-Apr-26 04:00N 56°24' W 005°30'0 0.0 1012.9 3.8-0.4
2016-Apr-26 03:00N 56°24' W 005°30'0 0.0 1012.9 4.3-0.1
2016-Apr-26 02:00N 56°24' W 005°30'0 0.0 1013.4 3.9-0.5
2016-Apr-26 01:00N 56°24' W 005°30'0 0.0 1013.3 4.0-0.6
2016-Apr-26 00:00N 56°24' W 005°30'0 0.0 1013.4 4.0-0.5
2016-Apr-25 23:00N 56°24' W 005°30'0 0.0 1013.4 4.3-0.1
2016-Apr-25 22:00N 56°24' W 005°30'0 0.0 1013.2 4.3-0.6
2016-Apr-25 21:00N 56°24' W 005°30'0 0.0 1013.0 5.2-2.5
2016-Apr-25 20:00N 56°24' W 005°30'7 6.9 1013.1 5.5-3.4
2016-Apr-25 19:00N 56°30' W 005°36'3 3.3 1013.0 5.2-2.1
2016-Apr-25 18:00N 56°30' W 005°30'6 6.0 1011.9 5.8-2.8
2016-Apr-25 17:00N 56°24' W 005°30'0 0.0 1012.8 5.5-1.3
2016-Apr-25 16:00N 56°24' W 005°30'0 0.0 1012.9 6.1 0.2
2016-Apr-25 15:00N 56°24' W 005°30'9 8.9 1012.9 8.1-3.5
2016-Apr-25 14:00N 56°30' W 005°42'1817.8 1013.7 5.7-3.8
2016-Apr-25 13:00N 56°42' W 006°06'1414.5 1013.5 4.0-0.8
2016-Apr-25 12:00N 56°36' W 006°30'9 8.9 1015.2 5.2-1.8
2016-Apr-25 11:00N 56°30' W 006°42'0 0.0 1012.6 5.8-2.3
2016-Apr-25 10:00N 56°30' W 006°42'2110.4 1014.0 6.2-0.4
2016-Apr-25 08:00N 56°36' W 006°06'1514.5 1013.1 5.5-1.8
2016-Apr-25 07:00N 56°30' W 005°42'9 8.9 1012.1 6.4 1.3
2016-Apr-25 06:00N 56°24' W 005°30'0 0.0 1012.2 6.7 2.5
2016-Apr-25 05:00N 56°24' W 005°30'0 0.0 1012.7 6.6 2.8
2016-Apr-25 04:00N 56°24' W 005°30'0 0.0 1013.0 6.7 2.8
2016-Apr-25 03:00N 56°24' W 005°30'0 0.0 1013.6 6.7 3.3
2016-Apr-25 02:00N 56°24' W 005°30'0 0.0 1014.1 6.8 4.0
2016-Apr-25 01:00N 56°24' W 005°30'0 0.0 1014.8 6.5 4.2
2016-Apr-25 00:00N 56°24' W 005°30'0 0.0 1015.3 6.8 4.3
2016-Apr-24 23:00N 56°24' W 005°30'0 0.0 1015.7 7.2 3.8
2016-Apr-24 22:00N 56°24' W 005°30'0 0.0 1015.9 7.4 3.8
2016-Apr-24 21:00N 56°24' W 005°30'3 3.3 1016.8 7.5 3.6
2016-Apr-24 20:00N 56°24' W 005°36'1615.6 1016.5 7.8 1.8
2016-Apr-24 19:00N 56°12' W 005°54'1211.7 1017.0 8.0 3.8
2016-Apr-24 18:00N 56°06' W 006°12'1211.7 1018.9 8.5 4.1
2016-Apr-24 17:00N 56°12' W 005°54'1615.6 1018.0 8.5 3.3
2016-Apr-24 16:00N 56°24' W 005°36'3 3.3 1017.7 8.6 1.4
2016-Apr-24 15:00N 56°24' W 005°30'7 6.9 1019.4 10.4 3.4
2016-Apr-24 14:00N 56°30' W 005°36'1514.5 1019.9 10.3 3.0
2016-Apr-24 13:00N 56°36' W 006°00'1313.2 1021.2 8.5 2.9
2016-Apr-24 12:00N 56°36' W 006°24'1211.6 1021.2 7.8 2.9
2016-Apr-24 11:00N 56°30' W 006°42'3 3.3 1021.5 7.7 4.8
2016-Apr-24 10:00N 56°30' W 006°48'1211.6 1021.6 7.8 5.0
2016-Apr-24 09:00N 56°36' W 006°30'1313.2 1021.2 7.5 4.5
2016-Apr-24 08:00N 56°36' W 006°06'1514.5 1020.8 7.0 4.6
2016-Apr-24 07:00N 56°30' W 005°42'9 8.9 1020.2 7.1 4.5
2016-Apr-24 06:00N 56°24' W 005°30'0 0.0 1020.6 7.1 5.1
2016-Apr-24 05:00N 56°24' W 005°30'0 0.0 1020.6 6.9 5.1
2016-Apr-24 04:00N 56°24' W 005°30'0 0.0 1021.1 5.7 4.2
2016-Apr-24 03:00N 56°24' W 005°30'0 0.0 1021.8 4.6 2.7
2016-Apr-24 02:00N 56°24' W 005°30'0 0.0 1022.5 5.4 2.2
2016-Apr-24 01:00N 56°24' W 005°30'0 0.0 1023.1 5.6-1.2
2016-Apr-23 23:00N 56°24' W 005°30'0 0.0 1023.8 5.8-1.8
2016-Apr-23 22:00N 56°24' W 005°30'0 0.0 1023.8 5.8-1.4
2016-Apr-23 21:00N 56°24' W 005°30'0 0.0 1023.4 6.1-0.8
2016-Apr-23 20:00N 56°24' W 005°30'0 0.0 1023.4 6.3-0.8
2016-Apr-23 19:00N 56°24' W 005°30'0 0.0 1023.5 6.7-1.6
2016-Apr-23 18:00N 56°24' W 005°30'0 0.0 1023.3 6.9-0.7
2016-Apr-23 17:00N 56°24' W 005°30'0 0.0 1023.2 7.4-1.0
2016-Apr-23 16:00N 56°24' W 005°30'0 0.0 1023.5 7.9-0.6
2016-Apr-23 15:00N 56°24' W 005°30'7 6.9 1023.6 8.2-0.5
2016-Apr-23 14:00N 56°30' W 005°36'1514.5 1024.3 7.0-1.4
2016-Apr-23 13:00N 56°36' W 006°00'1313.2 1025.0 6.5 0.3
2016-Apr-23 12:00N 56°36' W 006°24'1211.6 1025.0 5.7 1.3
2016-Apr-23 11:00N 56°30' W 006°42'3 3.3 1025.3 6.5 0.5
2016-Apr-23 10:00N 56°30' W 006°48'1211.6 1025.4 6.8 0.4
2016-Apr-23 09:00N 56°36' W 006°30'2713.6 1025.0 6.4 0.6
2016-Apr-23 07:00N 56°30' W 005°42'9 8.9 1024.4 4.8 1.3
2016-Apr-23 06:00N 56°24' W 005°30'0 0.0 1024.6 5.3 0.3
2016-Apr-23 05:00N 56°24' W 005°30'0 0.0 1024.6 4.9 0.6
2016-Apr-23 04:00N 56°24' W 005°30'0 0.0 1024.9 2.3-1.1
2016-Apr-23 03:00N 56°24' W 005°30'0 0.0 1025.2 3.6-0.7
2016-Apr-23 02:00N 56°24' W 005°30'0 0.0 1025.4 3.9-0.3
2016-Apr-23 01:00N 56°24' W 005°30'0 0.0 1025.6 3.3-0.8
2016-Apr-23 00:00N 56°24' W 005°30'0 0.0 1025.4 4.2-0.3
2016-Apr-22 23:00N 56°24' W 005°30'0 0.0 1025.2 5.3 0.3
2016-Apr-22 22:00N 56°24' W 005°30'0 0.0 1025.1 7.0 0.6
2016-Apr-22 21:00N 56°24' W 005°30'7 6.6 1024.5 7.7 0.7
2016-Apr-22 20:00N 56°24' W 005°42'1615.6 1023.8 8.2 0.8
2016-Apr-22 19:00N 56°12' W 006°00'9 9.0 1022.7 8.9 2.1
2016-Apr-22 18:00N 56°06' W 006°12'1211.7 1023.4 8.9 0.4
2016-Apr-22 17:00N 56°12' W 005°54'1615.6 1023.3 9.9 1.7
2016-Apr-22 16:00N 56°24' W 005°36'3 3.3 1023.8 10.6-0.7
2016-Apr-22 15:00N 56°24' W 005°30'0 0.0 1024.2 12.2-3.3
2016-Apr-22 14:00N 56°24' W 005°30'35 7.0 1025.0 10.2-0.6
2016-Apr-22 09:00N 56°36' W 006°30'1313.2 1027.6 7.5 1.9
2016-Apr-22 08:00N 56°36' W 006°06'1514.5 1027.6 6.3 1.5
2016-Apr-22 07:00N 56°30' W 005°42'9 8.9 1027.4 6.3 2.3
2016-Apr-22 06:00N 56°24' W 005°30'0 0.0 1027.5 3.5 1.3
2016-Apr-22 05:00N 56°24' W 005°30'0 0.0 1027.4 3.8 1.4
2016-Apr-22 04:00N 56°24' W 005°30'0 0.0 1027.6 5.3 2.0
2016-Apr-22 03:00N 56°24' W 005°30'0 0.0 1027.8 6.8 2.6
2016-Apr-22 02:00N 56°24' W 005°30'0 0.0 1028.0 7.5 2.7
2016-Apr-22 01:00N 56°24' W 005°30'0 0.0 1028.1 8.3 3.1
2016-Apr-22 00:00N 56°24' W 005°30'0 0.0 1028.3 9.0 3.7
2016-Apr-21 23:00N 56°24' W 005°30'2020.4 1028.0 9.2 2.6
2016-Apr-21 22:00N 56°36' W 006°00'1414.5 1027.7 8.2 3.2
2016-Apr-21 21:00N 56°42' W 006°24'1414.5 1025.8 8.2 3.6
2016-Apr-21 20:00N 56°48' W 006°48'1717.5 1025.9 8.3 2.6
2016-Apr-21 19:00N 56°54' W 007°18'9 8.9 1027.4 8.3 3.5
2016-Apr-21 18:00N 57°00' W 007°30'1717.4 1029.0 9.2 0.8
2016-Apr-21 17:00N 56°54' W 007°00'1414.4 1027.8 8.6 3.9
2016-Apr-21 16:00N 56°48' W 006°36'1817.5 1027.4 9.5 3.1
2016-Apr-21 15:00N 56°42' W 006°06'1817.8 1027.1 10.1 2.5
2016-Apr-21 14:00N 56°30' W 005°42'9 8.9 1027.2 11.8 3.3
2016-Apr-21 13:00N 56°24' W 005°30'9 8.9 1027.2 13.0 3.3
2016-Apr-21 12:00N 56°30' W 005°42'1514.5 1027.4 9.8 4.1
2016-Apr-21 11:00N 56°36' W 006°06'1313.2 1028.3 9.1 4.5
2016-Apr-21 10:00N 56°36' W 006°30'9 8.9 1028.4 8.4 5.2
2016-Apr-21 09:00N 56°30' W 006°42'7 6.9 1028.1 8.2 5.5
2016-Apr-21 08:00N 56°36' W 006°36'10 9.9 1028.7 8.3 5.0
2016-Apr-21 07:00N 56°36' W 006°18'1514.5 1028.3 7.5 4.5
2016-Apr-21 06:00N 56°30' W 005°54'1514.6 1028.0 6.1 4.9
2016-Apr-21 05:00N 56°24' W 005°30'0 0.0 1027.5 3.3 2.4
2016-Apr-21 04:00N 56°24' W 005°30'0 0.0 1028.1 2.9 1.8
2016-Apr-21 03:00N 56°24' W 005°30'0 0.0 1028.3 3.4 2.2
2016-Apr-21 02:00N 56°24' W 005°30'0 0.0 1028.6 3.8 2.5
2016-Apr-21 01:00N 56°24' W 005°30'0 0.0 1028.7 4.4 2.8
2016-Apr-21 00:00N 56°24' W 005°30'0 0.0 1029.2 5.3 3.2
2016-Apr-20 23:00N 56°24' W 005°30'0 0.0 1029.2 6.3 3.6
2016-Apr-20 22:00N 56°24' W 005°30'0 0.0 1029.2 8.0 4.5
2016-Apr-20 21:00N 56°24' W 005°30'3 3.3 1029.2 8.5 4.5
2016-Apr-20 20:00N 56°24' W 005°36'1817.9 1029.1 8.7 4.0
2016-Apr-20 19:00N 56°36' W 006°00'   1029.5 9.0 3.8
Track history (hours):
 
Tides and Currents Weather Stations Pressure Air Temp Water Temp Dewpoint Dewpoint Depression Visibility Wind Speed Wind Dir Waves Ship Positions

Callsign AMOUK21 (name unknown)

Last reported at 2016-Apr-30 19:00 UTC. Time now 2016-Apr-30 20:45 UTC.
Position N 56°24' W 005°30'.

Barometer 1019.3 mb
Air temperature 8.0 ° C
Dewpoint 2.1 ° C

Date/timePositionNaut miles runAvg speedWind from/ knotsBaromVisibWave heightAir tempDewpointWater temp
2016-Apr-30 19:00N 56°24' W 005°30'0 0.0 1019.3 8.0 2.1
2016-Apr-30 18:00N 56°24' W 005°30'0 0.0 1019.4 8.8 2.2
2016-Apr-30 17:00N 56°24' W 005°30'0 0.0 1019.2 9.3 3.3
2016-Apr-30 16:00N 56°24' W 005°30'0 0.0 1019.2 7.9 2.8
2016-Apr-30 15:00N 56°24' W 005°30'9 8.9 1018.9 8.6 1.6
2016-Apr-30 14:00N 56°30' W 005°42'1211.6 1018.1 8.1 0.5
2016-Apr-30 13:00N 56°36' W 006°00'1313.2 1017.6 7.7 2.0
2016-Apr-30 12:00N 56°36' W 006°24'1211.6 1017.3 6.7 2.8
2016-Apr-30 11:00N 56°30' W 006°42'0 0.0 1017.0 6.1 2.7
2016-Apr-30 10:00N 56°30' W 006°42'9 8.9 1016.8 6.9 2.3
2016-Apr-30 09:00N 56°36' W 006°30'1313.2 1016.1 6.6 1.9
2016-Apr-30 08:00N 56°36' W 006°06'1514.5 1016.5 4.4 1.5
2016-Apr-30 07:00N 56°30' W 005°42'9 8.9 1016.6 3.8 1.3
2016-Apr-30 06:00N 56°24' W 005°30'0 0.0 1016.6 4.5 2.1
2016-Apr-30 05:00N 56°24' W 005°30'0 0.0 1015.8 4.9 1.2
2016-Apr-30 04:00N 56°24' W 005°30'0 0.0 1015.6 4.4 1.5
2016-Apr-30 03:00N 56°24' W 005°30'0 0.0 1015.3 4.9 1.0
2016-Apr-30 02:00N 56°24' W 005°30'0 0.0 1015.2 5.6 2.4
2016-Apr-30 01:00N 56°24' W 005°30'0 0.0 1014.9 5.8 2.5
2016-Apr-30 00:00N 56°24' W 005°30'0 0.0 1014.6 5.8 2.1
2016-Apr-29 23:00N 56°24' W 005°30'0 0.0 1014.2 5.9 2.5
2016-Apr-29 22:00N 56°24' W 005°30'0 0.0 1014.0 6.2 2.5
2016-Apr-29 21:00N 56°24' W 005°30'18 9.0 1013.6 6.6 2.9
2016-Apr-29 19:00N 56°12' W 005°54'1211.7 1011.5 7.4 1.7
2016-Apr-29 18:00N 56°06' W 006°12'1211.7 1012.6 7.1 1.3
2016-Apr-29 17:00N 56°12' W 005°54'1615.6 1011.5 7.8 1.8
2016-Apr-29 16:00N 56°24' W 005°36'3 1.7 1010.0 7.9 1.0
2016-Apr-29 14:00N 56°24' W 005°30'3 3.3 1010.0 8.6-0.2
2016-Apr-29 13:00N 56°24' W 005°36'1211.6 1009.3 7.2 0.3
2016-Apr-29 12:00N 56°30' W 005°54'1211.6 1009.5 6.5-0.7
2016-Apr-29 11:00N 56°36' W 006°12'10 9.9 1008.6 6.2 1.5
2016-Apr-29 10:00N 56°36' W 006°30'1211.6 1009.1 5.4 0.6
2016-Apr-29 09:00N 56°30' W 006°48'1211.6 1008.5 6.2 1.2
2016-Apr-29 08:00N 56°36' W 006°30'1716.5 1008.0 6.6 0.2
2016-Apr-29 07:00N 56°36' W 006°00'1514.5 1006.9 4.9-0.2
2016-Apr-29 06:00N 56°30' W 005°36'7 6.9 1005.5 4.7-1.0
2016-Apr-29 05:00N 56°24' W 005°30'0 0.0 1005.4 3.6-0.2
2016-Apr-29 04:00N 56°24' W 005°30'0 0.0 1004.9 3.2-0.4
2016-Apr-29 03:00N 56°24' W 005°30'0 0.0 1004.6 3.3 0.2
2016-Apr-29 02:00N 56°24' W 005°30'0 0.0 1004.4 2.5 0.2
2016-Apr-29 01:00N 56°24' W 005°30'0 0.0 1004.0 3.1 0.6
2016-Apr-29 00:00N 56°24' W 005°30'0 0.0 1003.8 3.0 0.2
2016-Apr-28 23:00N 56°24' W 005°30'0 0.0 1003.6 2.4 0.4
2016-Apr-28 22:00N 56°24' W 005°30'0 0.0 1003.3 2.3 1.2
2016-Apr-28 21:00N 56°24' W 005°30'3 3.3 1003.1 3.3 1.6
2016-Apr-28 20:00N 56°24' W 005°36'1615.6 1002.8 3.9 1.2
2016-Apr-28 19:00N 56°12' W 005°54'1211.7 1002.1 2.3 0.9
2016-Apr-28 18:00N 56°06' W 006°12'1211.7 1003.0 4.6 0.4
2016-Apr-28 17:00N 56°12' W 005°54'1615.6 1002.2 3.8 1.1
2016-Apr-28 16:00N 56°24' W 005°36'0 0.0 1001.7 2.3 0.6
2016-Apr-28 14:00N 56°24' W 005°36'3712.3 1001.0 4.4 1.1
2016-Apr-28 11:00N 56°30' W 006°42'0 0.0 1003.1 2.2 1.2
2016-Apr-28 10:00N 56°30' W 006°42'9 8.9 1003.2 2.1 1.7
2016-Apr-28 09:00N 56°36' W 006°30'1414.5 1005.0 0.4-0.3
2016-Apr-28 08:00N 56°42' W 006°06'1817.8 1005.5 1.1-0.2
2016-Apr-28 07:00N 56°30' W 005°42'9 8.9 1006.4 2.6 0.2
2016-Apr-28 06:00N 56°24' W 005°30'0 0.0 1007.2 2.5-0.1
2016-Apr-28 05:00N 56°24' W 005°30'0 0.0 1008.1 2.4 0.2
2016-Apr-28 04:00N 56°24' W 005°30'0 0.0 1009.2 2.3-0.5
2016-Apr-28 03:00N 56°24' W 005°30'0 0.0 1010.0 2.6-0.6
2016-Apr-28 02:00N 56°24' W 005°30'0 0.0 1010.7 3.8 0.6
2016-Apr-27 23:00N 56°24' W 005°30'0 0.0 1012.0 4.3-0.2
2016-Apr-27 22:00N 56°24' W 005°30'0 0.0 1012.3 4.4-0.5
2016-Apr-27 21:00N 56°24' W 005°30'9 8.9 1012.6 5.1 0.4
2016-Apr-27 20:00N 56°30' W 005°42'1211.6 1012.6 4.3-0.1
2016-Apr-27 19:00N 56°36' W 006°00'1716.5 1013.1 5.0-0.4
2016-Apr-27 18:00N 56°36' W 006°30'9 8.9 1013.1 4.8-0.2
2016-Apr-27 17:00N 56°30' W 006°42'0 0.0 1013.2 4.9 0.5
2016-Apr-27 16:00N 56°30' W 006°42'1615.6 1014.5 5.8 1.0
2016-Apr-27 15:00N 56°42' W 007°00'1817.8 1015.0 3.9 0.5
2016-Apr-27 14:00N 56°54' W 007°24'0 0.0 1015.5 5.3-1.7
2016-Apr-27 13:00N 56°54' W 007°24'1211.5 1014.9 5.3-1.2
2016-Apr-27 12:00N 56°48' W 007°06'1817.8 1015.0 4.7-1.3
2016-Apr-27 11:00N 56°36' W 006°42'7 6.9 1014.9 4.2-0.9
2016-Apr-27 10:00N 56°30' W 006°48'1211.6 1014.8 4.8-2.7
2016-Apr-27 09:00N 56°36' W 006°30'1414.5 1015.1 4.2-1.2
2016-Apr-27 08:00N 56°42' W 006°06'1817.8 1015.1 3.3-0.9
2016-Apr-27 07:00N 56°30' W 005°42'9 8.9 1014.7 3.2-1.2
2016-Apr-27 06:00N 56°24' W 005°30'0 0.0 1014.7 1.1-2.0
2016-Apr-27 05:00N 56°24' W 005°30'0 0.0 1014.9 -3.0
2016-Apr-27 04:00N 56°24' W 005°30'0 0.0 1015.2 0.6-1.9
2016-Apr-27 03:00N 56°24' W 005°30'0 0.0 1015.3 0.8-2.7
2016-Apr-27 02:00N 56°24' W 005°30'0 0.0 1015.5 1.2-2.6
2016-Apr-27 01:00N 56°24' W 005°30'0 0.0 1015.5 2.1-2.4
2016-Apr-27 00:00N 56°24' W 005°30'0 0.0 1015.7 2.8-1.6
2016-Apr-26 23:00N 56°24' W 005°30'0 0.0 1015.7 4.1-1.2
2016-Apr-26 22:00N 56°24' W 005°30'7 6.9 1015.6 4.3-0.9
2016-Apr-26 21:00N 56°30' W 005°36'1514.5 1015.9 5.4-0.8
2016-Apr-26 20:00N 56°36' W 006°00'2713.6 1016.0 5.8-0.5
2016-Apr-26 18:00N 56°30' W 006°48'9 8.9 1016.4 6.0 0.5
2016-Apr-26 17:00N 56°36' W 006°36'10 9.9 1016.2 7.2 1.2
2016-Apr-26 16:00N 56°36' W 006°18'1514.5 1015.7 7.5 0.4
2016-Apr-26 15:00N 56°30' W 005°54'1514.6 1014.2 6.7-0.5
2016-Apr-26 14:00N 56°24' W 005°30'0 0.0 1013.3 7.8-2.4
2016-Apr-26 13:00N 56°24' W 005°30'7 6.9 1013.0 7.2-0.7
2016-Apr-26 12:00N 56°30' W 005°36'3 3.3 1013.1 6.7 0.9
2016-Apr-26 11:00N 56°30' W 005°30'0 0.0 1013.2 6.4 0.7
2016-Apr-26 10:00N 56°30' W 005°30'6 6.0 1013.0 5.5 0.2
2016-Apr-26 09:00N 56°24' W 005°30'0 0.0 1013.5 5.1-0.3
2016-Apr-26 08:00N 56°24' W 005°30'0 0.0 1013.3 5.2 1.1
2016-Apr-26 07:00N 56°24' W 005°30'0 0.0 1013.3 4.8 1.1
2016-Apr-26 06:00N 56°24' W 005°30'0 0.0 1013.0 4.0 1.2
2016-Apr-26 05:00N 56°24' W 005°30'0 0.0 1012.7 3.8 0.7
2016-Apr-26 04:00N 56°24' W 005°30'0 0.0 1012.9 3.8-0.4
2016-Apr-26 03:00N 56°24' W 005°30'0 0.0 1012.9 4.3-0.1
2016-Apr-26 02:00N 56°24' W 005°30'0 0.0 1013.4 3.9-0.5
2016-Apr-26 01:00N 56°24' W 005°30'0 0.0 1013.3 4.0-0.6
2016-Apr-26 00:00N 56°24' W 005°30'0 0.0 1013.4 4.0-0.5
2016-Apr-25 23:00N 56°24' W 005°30'0 0.0 1013.4 4.3-0.1
2016-Apr-25 22:00N 56°24' W 005°30'0 0.0 1013.2 4.3-0.6
2016-Apr-25 21:00N 56°24' W 005°30'0 0.0 1013.0 5.2-2.5
2016-Apr-25 20:00N 56°24' W 005°30'7 6.9 1013.1 5.5-3.4
2016-Apr-25 19:00N 56°30' W 005°36'3 3.3 1013.0 5.2-2.1
2016-Apr-25 18:00N 56°30' W 005°30'6 6.0 1011.9 5.8-2.8
2016-Apr-25 17:00N 56°24' W 005°30'0 0.0 1012.8 5.5-1.3
2016-Apr-25 16:00N 56°24' W 005°30'0 0.0 1012.9 6.1 0.2
2016-Apr-25 15:00N 56°24' W 005°30'9 8.9 1012.9 8.1-3.5
2016-Apr-25 14:00N 56°30' W 005°42'1817.8 1013.7 5.7-3.8
2016-Apr-25 13:00N 56°42' W 006°06'1414.5 1013.5 4.0-0.8
2016-Apr-25 12:00N 56°36' W 006°30'9 8.9 1015.2 5.2-1.8
2016-Apr-25 11:00N 56°30' W 006°42'0 0.0 1012.6 5.8-2.3
2016-Apr-25 10:00N 56°30' W 006°42'2110.4 1014.0 6.2-0.4
2016-Apr-25 08:00N 56°36' W 006°06'1514.5 1013.1 5.5-1.8
2016-Apr-25 07:00N 56°30' W 005°42'9 8.9 1012.1 6.4 1.3
2016-Apr-25 06:00N 56°24' W 005°30'0 0.0 1012.2 6.7 2.5
2016-Apr-25 05:00N 56°24' W 005°30'0 0.0 1012.7 6.6 2.8
2016-Apr-25 04:00N 56°24' W 005°30'0 0.0 1013.0 6.7 2.8
2016-Apr-25 03:00N 56°24' W 005°30'0 0.0 1013.6 6.7 3.3
2016-Apr-25 02:00N 56°24' W 005°30'0 0.0 1014.1 6.8 4.0
2016-Apr-25 01:00N 56°24' W 005°30'0 0.0 1014.8 6.5 4.2
2016-Apr-25 00:00N 56°24' W 005°30'0 0.0 1015.3 6.8 4.3
2016-Apr-24 23:00N 56°24' W 005°30'0 0.0 1015.7 7.2 3.8
2016-Apr-24 22:00N 56°24' W 005°30'0 0.0 1015.9 7.4 3.8
2016-Apr-24 21:00N 56°24' W 005°30'3 3.3 1016.8 7.5 3.6
2016-Apr-24 20:00N 56°24' W 005°36'1615.6 1016.5 7.8 1.8
2016-Apr-24 19:00N 56°12' W 005°54'1211.7 1017.0 8.0 3.8
2016-Apr-24 18:00N 56°06' W 006°12'1211.7 1018.9 8.5 4.1
2016-Apr-24 17:00N 56°12' W 005°54'1615.6 1018.0 8.5 3.3
2016-Apr-24 16:00N 56°24' W 005°36'3 3.3 1017.7 8.6 1.4
2016-Apr-24 15:00N 56°24' W 005°30'7 6.9 1019.4 10.4 3.4
2016-Apr-24 14:00N 56°30' W 005°36'1514.5 1019.9 10.3 3.0
2016-Apr-24 13:00N 56°36' W 006°00'1313.2 1021.2 8.5 2.9
2016-Apr-24 12:00N 56°36' W 006°24'1211.6 1021.2 7.8 2.9
2016-Apr-24 11:00N 56°30' W 006°42'3 3.3 1021.5 7.7 4.8
2016-Apr-24 10:00N 56°30' W 006°48'1211.6 1021.6 7.8 5.0
2016-Apr-24 09:00N 56°36' W 006°30'1313.2 1021.2 7.5 4.5
2016-Apr-24 08:00N 56°36' W 006°06'1514.5 1020.8 7.0 4.6
2016-Apr-24 07:00N 56°30' W 005°42'9 8.9 1020.2 7.1 4.5
2016-Apr-24 06:00N 56°24' W 005°30'0 0.0 1020.6 7.1 5.1
2016-Apr-24 05:00N 56°24' W 005°30'0 0.0 1020.6 6.9 5.1
2016-Apr-24 04:00N 56°24' W 005°30'0 0.0 1021.1 5.7 4.2
2016-Apr-24 03:00N 56°24' W 005°30'0 0.0 1021.8 4.6 2.7
2016-Apr-24 02:00N 56°24' W 005°30'0 0.0 1022.5 5.4 2.2
2016-Apr-24 01:00N 56°24' W 005°30'0 0.0 1023.1 5.6-1.2
2016-Apr-23 23:00N 56°24' W 005°30'0 0.0 1023.8 5.8-1.8
2016-Apr-23 22:00N 56°24' W 005°30'0 0.0 1023.8 5.8-1.4
2016-Apr-23 21:00N 56°24' W 005°30'0 0.0 1023.4 6.1-0.8
2016-Apr-23 20:00N 56°24' W 005°30'0 0.0 1023.4 6.3-0.8
2016-Apr-23 19:00N 56°24' W 005°30'0 0.0 1023.5 6.7-1.6
2016-Apr-23 18:00N 56°24' W 005°30'0 0.0 1023.3 6.9-0.7
2016-Apr-23 17:00N 56°24' W 005°30'0 0.0 1023.2 7.4-1.0
2016-Apr-23 16:00N 56°24' W 005°30'0 0.0 1023.5 7.9-0.6
2016-Apr-23 15:00N 56°24' W 005°30'7 6.9 1023.6 8.2-0.5
2016-Apr-23 14:00N 56°30' W 005°36'1514.5 1024.3 7.0-1.4
2016-Apr-23 13:00N 56°36' W 006°00'1313.2 1025.0 6.5 0.3
2016-Apr-23 12:00N 56°36' W 006°24'1211.6 1025.0 5.7 1.3
2016-Apr-23 11:00N 56°30' W 006°42'3 3.3 1025.3 6.5 0.5
2016-Apr-23 10:00N 56°30' W 006°48'1211.6 1025.4 6.8 0.4
2016-Apr-23 09:00N 56°36' W 006°30'2713.6 1025.0 6.4 0.6
2016-Apr-23 07:00N 56°30' W 005°42'9 8.9 1024.4 4.8 1.3
2016-Apr-23 06:00N 56°24' W 005°30'0 0.0 1024.6 5.3 0.3
2016-Apr-23 05:00N 56°24' W 005°30'0 0.0 1024.6 4.9 0.6
2016-Apr-23 04:00N 56°24' W 005°30'0 0.0 1024.9 2.3-1.1
2016-Apr-23 03:00N 56°24' W 005°30'0 0.0 1025.2 3.6-0.7
2016-Apr-23 02:00N 56°24' W 005°30'0 0.0 1025.4 3.9-0.3
2016-Apr-23 01:00N 56°24' W 005°30'0 0.0 1025.6 3.3-0.8
2016-Apr-23 00:00N 56°24' W 005°30'0 0.0 1025.4 4.2-0.3
2016-Apr-22 23:00N 56°24' W 005°30'0 0.0 1025.2 5.3 0.3
2016-Apr-22 22:00N 56°24' W 005°30'0 0.0 1025.1 7.0 0.6
2016-Apr-22 21:00N 56°24' W 005°30'7 6.6 1024.5 7.7 0.7
2016-Apr-22 20:00N 56°24' W 005°42'1615.6 1023.8 8.2 0.8
2016-Apr-22 19:00N 56°12' W 006°00'9 9.0 1022.7 8.9 2.1
2016-Apr-22 18:00N 56°06' W 006°12'1211.7 1023.4 8.9 0.4
2016-Apr-22 17:00N 56°12' W 005°54'1615.6 1023.3 9.9 1.7
2016-Apr-22 16:00N 56°24' W 005°36'3 3.3 1023.8 10.6-0.7
2016-Apr-22 15:00N 56°24' W 005°30'0 0.0 1024.2 12.2-3.3
2016-Apr-22 14:00N 56°24' W 005°30'35 7.0 1025.0 10.2-0.6
2016-Apr-22 09:00N 56°36' W 006°30'1313.2 1027.6 7.5 1.9
2016-Apr-22 08:00N 56°36' W 006°06'1514.5 1027.6 6.3 1.5
2016-Apr-22 07:00N 56°30' W 005°42'9 8.9 1027.4 6.3 2.3
2016-Apr-22 06:00N 56°24' W 005°30'0 0.0 1027.5 3.5 1.3
2016-Apr-22 05:00N 56°24' W 005°30'0 0.0 1027.4 3.8 1.4
2016-Apr-22 04:00N 56°24' W 005°30'0 0.0 1027.6 5.3 2.0
2016-Apr-22 03:00N 56°24' W 005°30'0 0.0 1027.8 6.8 2.6
2016-Apr-22 02:00N 56°24' W 005°30'0 0.0 1028.0 7.5 2.7
2016-Apr-22 01:00N 56°24' W 005°30'0 0.0 1028.1 8.3 3.1
2016-Apr-22 00:00N 56°24' W 005°30'0 0.0 1028.3 9.0 3.7
2016-Apr-21 23:00N 56°24' W 005°30'2020.4 1028.0 9.2 2.6
2016-Apr-21 22:00N 56°36' W 006°00'1414.5 1027.7 8.2 3.2
2016-Apr-21 21:00N 56°42' W 006°24'1414.5 1025.8 8.2 3.6
2016-Apr-21 20:00N 56°48' W 006°48'1717.5 1025.9 8.3 2.6
2016-Apr-21 19:00N 56°54' W 007°18'9 8.9 1027.4 8.3 3.5
2016-Apr-21 18:00N 57°00' W 007°30'1717.4 1029.0 9.2 0.8
2016-Apr-21 17:00N 56°54' W 007°00'1414.4 1027.8 8.6 3.9
2016-Apr-21 16:00N 56°48' W 006°36'1817.5 1027.4 9.5 3.1
2016-Apr-21 15:00N 56°42' W 006°06'1817.8 1027.1 10.1 2.5
2016-Apr-21 14:00N 56°30' W 005°42'9 8.9 1027.2 11.8 3.3
2016-Apr-21 13:00N 56°24' W 005°30'9 8.9 1027.2 13.0 3.3
2016-Apr-21 12:00N 56°30' W 005°42'1514.5 1027.4 9.8 4.1
2016-Apr-21 11:00N 56°36' W 006°06'1313.2 1028.3 9.1 4.5
2016-Apr-21 10:00N 56°36' W 006°30'9 8.9 1028.4 8.4 5.2
2016-Apr-21 09:00N 56°30' W 006°42'7 6.9 1028.1 8.2 5.5
2016-Apr-21 08:00N 56°36' W 006°36'10 9.9 1028.7 8.3 5.0
2016-Apr-21 07:00N 56°36' W 006°18'1514.5 1028.3 7.5 4.5
2016-Apr-21 06:00N 56°30' W 005°54'1514.6 1028.0 6.1 4.9
2016-Apr-21 05:00N 56°24' W 005°30'0 0.0 1027.5 3.3 2.4
2016-Apr-21 04:00N 56°24' W 005°30'0 0.0 1028.1 2.9 1.8
2016-Apr-21 03:00N 56°24' W 005°30'0 0.0 1028.3 3.4 2.2
2016-Apr-21 02:00N 56°24' W 005°30'0 0.0 1028.6 3.8 2.5
2016-Apr-21 01:00N 56°24' W 005°30'0 0.0 1028.7 4.4 2.8
2016-Apr-21 00:00N 56°24' W 005°30'0 0.0 1029.2 5.3 3.2
2016-Apr-20 23:00N 56°24' W 005°30'0 0.0 1029.2 6.3 3.6
2016-Apr-20 22:00N 56°24' W 005°30'0 0.0 1029.2 8.0 4.5
2016-Apr-20 21:00N 56°24' W 005°30'3 3.3 1029.2 8.5 4.5
2016-Apr-20 20:00N 56°24' W 005°36'1817.9 1029.1 8.7 4.0
2016-Apr-20 19:00N 56°36' W 006°00'   1029.5 9.0 3.8

Dump ship's entire track history